Time;durP1;ratioP1;P1;durP2;ratioP2;P2;SDS_P1;SDS_P2;PMS_P1;PMS_P2;Temp;Humidity;BMP_temperature;BMP_pressure;BME280_temperature;BME280_humidity;BME280_pressure;Samples;Min_cycle;Max_cycle;Signal;HPM_P1;HPM_P2
2021/04/03 00:01:04;;;;;;;7.82;3.85;;;6.70;54.00;;;;;;5009725;28;20033;-66
2021/04/03 00:03:30;;;;;;;7.28;3.40;;;6.80;54.10;;;;;;5005953;28;20032;-65
2021/04/03 00:05:57;;;;;;;6.53;3.75;;;6.80;54.30;;;;;;5009105;28;20113;-66
2021/04/03 00:08:26;;;;;;;4.75;3.13;;;6.80;54.10;;;;;;5009926;28;20026;-66
2021/04/03 00:11:03;;;;;;;9.63;3.42;;;6.80;54.00;;;;;;5009858;28;20057;-66
2021/04/03 00:13:33;;;;;;;7.75;3.35;;;6.90;54.00;;;;;;5003859;28;20084;-66
2021/04/03 00:15:58;;;;;;;5.03;3.20;;;6.90;54.00;;;;;;5002919;28;20034;-66
2021/04/03 00:18:24;;;;;;;4.88;3.28;;;6.90;54.00;;;;;;5009845;28;20067;-67
2021/04/03 00:20:51;;;;;;;4.68;3.28;;;7.00;53.80;;;;;;5009888;28;20120;-67
2021/04/03 00:23:18;;;;;;;6.38;3.72;;;6.90;53.70;;;;;;5015900;28;20132;-66
2021/04/03 00:25:44;;;;;;;5.68;3.13;;;6.90;53.70;;;;;;5013060;28;20026;-66
2021/04/03 00:28:10;;;;;;;5.55;2.88;;;6.90;53.70;;;;;;5009841;28;20034;-66
2021/04/03 00:30:36;;;;;;;5.90;3.03;;;6.90;53.70;;;;;;5010523;28;20037;-66
2021/04/03 00:33:04;;;;;;;7.63;3.53;;;6.90;53.70;;;;;;4993513;28;20121;-66
2021/04/03 00:35:32;;;;;;;7.03;3.03;;;6.80;53.50;;;;;;5005892;28;20050;-66
2021/04/03 00:37:59;;;;;;;6.65;2.92;;;6.80;53.60;;;;;;5006583;28;20475;-66
2021/04/03 00:40:32;;;;;;;8.55;3.42;;;6.80;53.60;;;;;;5009640;28;20036;-66
2021/04/03 00:42:58;;;;;;;;;;;6.80;53.60;;;;;;5010375;28;20037;-66
2021/04/03 00:45:24;;;;;;;7.75;3.28;;;6.80;53.10;;;;;;4997741;28;20335;-66
2021/04/03 00:47:50;;;;;;;7.75;3.88;;;6.80;53.30;;;;;;4996066;28;20035;-66
2021/04/03 00:50:21;;;;;;;9.27;3.75;;;6.80;53.50;;;;;;4998855;28;20105;-65
2021/04/03 00:52:47;;;;;;;7.32;3.13;;;6.70;53.50;;;;;;5010321;28;20034;-67
2021/04/03 00:55:13;;;;;;;11.90;3.67;;;6.70;53.70;;;;;;5023071;28;20025;-66
2021/04/03 00:57:39;;;;;;;8.15;4.10;;;6.70;53.60;;;;;;5032929;28;20046;-68
2021/04/03 01:00:07;;;;;;;4.60;3.20;;;6.70;53.70;;;;;;5024448;28;20093;-68
2021/04/03 01:02:32;;;;;;;6.82;3.40;;;6.70;53.80;;;;;;5012263;28;20049;-66
2021/04/03 01:04:59;;;;;;;8.98;3.58;;;6.70;53.90;;;;;;5005510;28;20032;-66
2021/04/03 01:07:25;;;;;;;6.18;3.28;;;6.70;53.90;;;;;;5013001;28;20113;-66
2021/04/03 01:09:51;;;;;;;7.65;4.05;;;6.70;53.90;;;;;;5005572;28;20458;-66
2021/04/03 01:12:23;;;;;;;12.00;4.30;;;6.80;54.00;;;;;;5009651;28;20113;-65
2021/04/03 01:14:52;;;;;;;7.10;3.63;;;6.70;54.00;;;;;;5018437;28;20034;-65
2021/04/03 01:17:30;;;;;;;8.90;4.05;;;6.70;53.90;;;;;;5017234;28;20091;-66
2021/04/03 01:20:31;;;;;;;5.88;3.63;;;6.70;54.00;;;;;;5017777;28;20793;-67
2021/04/03 01:23:06;;;;;;;9.10;3.95;;;6.60;53.80;;;;;;5014838;28;20087;-67
2021/04/03 01:25:38;;;;;;;7.72;3.55;;;6.60;54.00;;;;;;5019313;28;20104;-65
2021/04/03 01:28:32;;;;;;;12.02;4.07;;;6.60;54.00;;;;;;5012639;28;20049;-67
2021/04/03 01:30:59;;;;;;;8.35;3.67;;;6.60;54.30;;;;;;5002601;28;20037;-65
2021/04/03 01:33:29;;;;;;;8.95;4.18;;;6.60;54.20;;;;;;5003741;28;20483;-66
2021/04/03 01:36:03;;;;;;;9.95;4.00;;;6.60;54.40;;;;;;5008810;28;20030;-66
2021/04/03 01:38:42;;;;;;;8.02;3.55;;;6.50;54.30;;;;;;5006606;28;20027;-67
2021/04/03 01:41:09;;;;;;;8.70;3.83;;;6.60;54.40;;;;;;5018541;28;20025;-66
2021/04/03 01:43:40;;;;;;;5.07;3.60;;;6.60;54.40;;;;;;5020352;28;20037;-66
2021/04/03 01:46:08;;;;;;;9.02;4.47;;;6.50;54.40;;;;;;5011737;28;20117;-65
2021/04/03 01:48:37;;;;;;;5.85;3.55;;;6.60;54.40;;;;;;5011808;28;20030;-65
2021/04/03 01:51:04;;;;;;;6.97;4.07;;;6.60;54.50;;;;;;5012063;28;20053;-66
2021/04/03 01:53:32;;;;;;;5.82;3.88;;;6.60;54.60;;;;;;5012886;28;20145;-65
2021/04/03 01:55:58;;;;;;;5.90;3.45;;;6.60;54.70;;;;;;5016318;28;20064;-65
2021/04/03 01:58:24;;;;;;;7.13;4.05;;;6.60;54.70;;;;;;5011855;28;20037;-65
2021/04/03 02:00:51;;;;;;;9.13;4.35;;;6.60;54.70;;;;;;5011630;28;20401;-65
2021/04/03 02:03:17;;;;;;;6.60;3.72;;;6.60;54.70;;;;;;5011320;28;20029;-65
2021/04/03 02:05:47;;;;;;;8.75;4.20;;;6.60;54.70;;;;;;5011217;28;20033;-65
2021/04/03 02:08:14;;;;;;;8.60;3.75;;;6.60;54.70;;;;;;5011498;28;20443;-65
2021/04/03 02:10:40;;;;;;;6.57;4.13;;;6.60;54.80;;;;;;4995066;28;20034;-65
2021/04/03 02:13:06;;;;;;;5.65;3.47;;;6.60;54.70;;;;;;5011658;28;20018;-65
2021/04/03 02:15:32;;;;;;;7.57;3.78;;;6.60;54.80;;;;;;5010879;28;20022;-66
2021/04/03 02:18:00;;;;;;;8.43;3.63;;;6.60;54.80;;;;;;5011501;28;20198;-65
2021/04/03 02:20:25;;;;;;;6.78;3.70;;;6.60;54.80;;;;;;5011173;28;20064;-65
2021/04/03 02:22:51;;;;;;;9.90;4.07;;;6.50;54.70;;;;;;5014032;28;20061;-64
2021/04/03 02:25:18;;;;;;;6.40;3.63;;;6.50;54.90;;;;;;5018885;28;20045;-65
2021/04/03 02:27:44;;;;;;;5.28;3.72;;;6.50;54.90;;;;;;5027749;28;20022;-67
2021/04/03 02:30:16;;;;;;;7.25;3.97;;;6.50;54.90;;;;;;5011083;28;20037;-67
2021/04/03 02:33:05;;;;;;;8.45;4.00;;;6.50;54.80;;;;;;5011490;28;20033;-66
2021/04/03 02:35:30;;;;;;;8.73;3.90;;;6.50;54.80;;;;;;5010514;28;20156;-65
2021/04/03 02:37:59;;;;;;;7.05;3.88;;;6.40;54.70;;;;;;5011036;28;20148;-68
2021/04/03 02:40:28;;;;;;;7.25;3.58;;;6.40;55.00;;;;;;5017824;28;20368;-65
2021/04/03 02:43:18;;;;;;;7.75;3.80;;;6.40;54.90;;;;;;5030191;28;20083;-65
2021/04/03 02:45:50;;;;;;;9.43;3.90;;;6.40;54.90;;;;;;4991096;28;20121;-67
2021/04/03 02:48:21;;;;;;;6.45;2.92;;;6.40;54.80;;;;;;4991621;28;20035;-65
2021/04/03 02:50:51;;;;;;;8.50;3.67;;;6.30;54.60;;;;;;4991485;28;20201;-67
2021/04/03 02:53:21;;;;;;;10.60;4.70;;;6.30;54.70;;;;;;5010528;28;20029;-66
2021/04/03 02:55:49;;;;;;;8.85;3.53;;;6.30;54.90;;;;;;5018685;28;20430;-66
2021/04/03 02:58:18;;;;;;;7.35;4.43;;;6.20;54.90;;;;;;5002956;28;20034;-67
2021/04/03 03:00:47;;;;;;;8.02;4.32;;;6.20;55.00;;;;;;4999951;28;20105;-65
2021/04/03 03:03:14;;;;;;;9.00;3.88;;;6.20;55.20;;;;;;5018302;28;20474;-65
2021/04/03 03:05:43;;;;;;;7.30;3.55;;;6.20;55.00;;;;;;5010168;28;20033;-65
2021/04/03 03:08:12;;;;;;;7.93;3.80;;;6.20;55.10;;;;;;5010224;28;20044;-65
2021/04/03 03:10:38;;;;;;;8.20;4.20;;;6.10;55.20;;;;;;5008236;28;20115;-66
2021/04/03 03:13:07;;;;;;;11.43;3.70;;;6.20;55.40;;;;;;5011621;28;20018;-66
2021/04/03 03:15:33;;;;;;;12.73;4.00;;;6.20;55.30;;;;;;5026160;28;20026;-65
2021/04/03 03:18:00;;;;;;;6.50;4.10;;;6.10;55.10;;;;;;5007324;28;20032;-66
2021/04/03 03:20:27;;;;;;;5.95;3.55;;;6.10;55.20;;;;;;5010422;28;20034;-65
2021/04/03 03:22:55;;;;;;;7.03;3.65;;;6.10;55.40;;;;;;5025604;23;20085;-84
2021/04/03 03:25:20;;;;;;;6.82;3.42;;;6.10;55.50;;;;;;5001619;28;20026;-84
2021/04/03 03:27:47;;;;;;;5.70;3.70;;;6.10;55.50;;;;;;4995952;28;20057;-84
2021/04/03 03:30:18;;;;;;;5.65;3.75;;;6.20;55.80;;;;;;4994859;28;20185;-84
2021/04/03 03:32:45;;;;;;;4.38;3.13;;;6.20;55.80;;;;;;5006113;28;20038;-84
2021/04/03 03:35:12;;;;;;;11.35;3.90;;;6.20;55.60;;;;;;4999132;28;20076;-83
2021/04/03 03:37:38;;;;;;;7.72;3.60;;;6.20;55.50;;;;;;5012622;28;20018;-83
2021/04/03 03:40:05;;;;;;;8.90;3.63;;;6.30;55.60;;;;;;5012625;28;20027;-84
2021/04/03 03:42:31;;;;;;;6.60;3.55;;;6.30;55.60;;;;;;4994756;28;20030;-83
2021/04/03 03:44:57;;;;;;;9.25;3.28;;;6.30;55.60;;;;;;4995953;28;20396;-83
2021/04/03 03:47:23;;;;;;;6.35;3.35;;;6.40;55.60;;;;;;5000927;28;20026;-84
2021/04/03 03:49:49;;;;;;;6.13;3.42;;;6.40;56.10;;;;;;5000680;28;20499;-83
2021/04/03 03:52:14;;;;;;;9.30;3.70;;;6.40;55.60;;;;;;5021983;28;20433;-82
2021/04/03 03:54:40;;;;;;;6.75;3.03;;;6.40;55.60;;;;;;5031846;28;20019;-83
2021/04/03 03:57:06;;;;;;;7.47;3.35;;;6.40;55.50;;;;;;5015183;28;20026;-82
2021/04/03 03:59:32;;;;;;;6.45;3.40;;;6.40;55.50;;;;;;5010023;28;20112;-83
2021/04/03 04:01:57;;;;;;;9.23;3.20;;;6.40;55.50;;;;;;5003986;28;20050;-85
2021/04/03 04:04:23;;;;;;;10.85;3.35;;;6.30;55.50;;;;;;5000839;28;20051;-84
2021/04/03 04:06:49;;;;;;;4.63;3.00;;;6.30;55.60;;;;;;4998898;28;20035;-84
2021/04/03 04:09:14;;;;;;;5.10;3.63;;;6.30;55.50;;;;;;5001257;28;20121;-84
2021/04/03 04:11:40;;;;;;;6.20;3.45;;;6.30;55.70;;;;;;5008096;28;20026;-85
2021/04/03 04:14:06;;;;;;;6.88;3.33;;;6.30;55.90;;;;;;5019089;28;20022;-85
2021/04/03 04:16:31;;;;;;;5.70;3.50;;;6.30;55.90;;;;;;5007951;28;20022;-85
2021/04/03 04:18:57;;;;;;;4.78;3.13;;;6.30;56.00;;;;;;5007383;28;20027;-84
2021/04/03 04:21:26;;;;;;;4.47;3.28;;;6.40;56.00;;;;;;4997365;28;20129;-85
2021/04/03 04:23:52;;;;;;;7.78;3.53;;;6.30;56.30;;;;;;5002898;28;20041;-85
2021/04/03 04:26:18;;;;;;;6.30;3.60;;;6.30;56.10;;;;;;5016363;28;20404;-85
2021/04/03 04:28:43;;;;;;;5.38;2.90;;;6.40;56.10;;;;;;5017316;28;20408;-85
2021/04/03 04:31:10;;;;;;;5.55;3.30;;;6.30;56.00;;;;;;4999621;28;20060;-85
2021/04/03 04:33:35;;;;;;;4.68;2.90;;;6.30;56.00;;;;;;5015409;28;20029;-85
2021/04/03 04:36:01;;;;;;;5.55;3.15;;;6.30;56.00;;;;;;5017384;28;20053;-84
2021/04/03 04:38:27;;;;;;;6.40;3.00;;;6.30;55.90;;;;;;5016968;28;20040;-85
2021/04/03 04:40:53;;;;;;;6.68;3.40;;;6.20;55.90;;;;;;5000331;28;20026;-84
2021/04/03 04:43:20;;;;;;;4.03;2.97;;;6.20;56.00;;;;;;5000199;28;20026;-85
2021/04/03 04:45:45;;;;;;;6.80;2.97;;;6.20;56.10;;;;;;5015877;28;20508;-85
2021/04/03 04:48:11;;;;;;;8.43;3.22;;;6.10;56.20;;;;;;5016893;28;20045;-85
2021/04/03 04:50:37;;;;;;;6.68;3.28;;;6.10;56.30;;;;;;5000382;28;20030;-85
2021/04/03 04:53:02;;;;;;;6.25;3.08;;;6.00;56.20;;;;;;4999820;28;20033;-84
2021/04/03 04:55:28;;;;;;;11.27;3.58;;;6.00;56.30;;;;;;5024563;28;20014;-84
2021/04/03 04:57:54;;;;;;;10.48;3.67;;;6.00;56.30;;;;;;5000143;28;20057;-85
2021/04/03 05:00:20;;;;;;;5.00;2.92;;;5.90;56.50;;;;;;5000419;28;20030;-85
2021/04/03 05:02:45;;;;;;;9.30;3.25;;;5.90;56.50;;;;;;4999259;28;20100;-85
2021/04/03 05:05:11;;;;;;;4.47;3.30;;;5.80;56.40;;;;;;4999185;28;20085;-85
2021/04/03 05:07:37;;;;;;;6.32;3.20;;;5.80;56.50;;;;;;4999643;28;20381;-86
2021/04/03 05:10:03;;;;;;;8.55;3.45;;;5.70;56.50;;;;;;5009083;28;20083;-85
2021/04/03 05:12:28;;;;;;;9.15;3.53;;;5.70;56.60;;;;;;5001412;28;20029;-86
2021/04/03 05:14:54;;;;;;;7.50;3.47;;;5.70;56.60;;;;;;5023466;28;20023;-86
2021/04/03 05:17:21;;;;;;;6.97;3.45;;;5.70;56.70;;;;;;5000746;28;20026;-85
2021/04/03 05:19:47;;;;;;;9.88;3.83;;;5.60;56.70;;;;;;5016905;28;20121;-85
2021/04/03 05:22:13;;;;;;;11.18;3.83;;;5.60;56.80;;;;;;4999638;28;20034;-85
2021/04/03 05:24:38;;;;;;;7.68;3.55;;;5.50;56.80;;;;;;5007740;28;20053;-85
2021/04/03 05:27:05;;;;;;;5.07;3.28;;;5.50;56.90;;;;;;5009544;28;20082;-85
2021/04/03 05:29:30;;;;;;;4.55;3.00;;;5.60;57.00;;;;;;5007146;28;20058;-84
2021/04/03 05:31:56;;;;;;;7.80;3.28;;;5.60;57.00;;;;;;5026236;28;20086;-84
2021/04/03 05:34:21;;;;;;;5.85;3.60;;;5.70;57.10;;;;;;5026230;28;20075;-85
2021/04/03 05:36:47;;;;;;;6.20;3.00;;;5.70;57.00;;;;;;5010252;28;20121;-85
2021/04/03 05:39:13;;;;;;;5.70;3.00;;;5.70;57.00;;;;;;5009608;28;20026;-85
2021/04/03 05:41:38;;;;;;;5.82;3.03;;;5.80;57.00;;;;;;5013550;28;20022;-85
2021/04/03 05:44:05;;;;;;;7.47;3.08;;;5.70;56.80;;;;;;5004459;28;20073;-85
2021/04/03 05:46:31;;;;;;;6.82;3.50;;;5.80;57.00;;;;;;5009359;28;20493;-85
2021/04/03 05:48:59;;;;;;;6.93;2.97;;;5.80;57.10;;;;;;4996176;28;20144;-84
2021/04/03 05:51:28;;;;;;;9.30;3.38;;;5.70;57.00;;;;;;5002246;28;20026;-86
2021/04/03 05:53:54;;;;;;;5.95;3.28;;;5.70;57.10;;;;;;4999286;28;20581;-85
2021/04/03 05:56:19;;;;;;;6.70;3.30;;;5.70;57.10;;;;;;5028072;28;20057;-86
2021/04/03 05:58:45;;;;;;;8.00;3.25;;;5.70;57.20;;;;;;4998215;28;20081;-86
2021/04/03 06:01:11;;;;;;;5.60;3.17;;;5.70;57.30;;;;;;4998106;28;20077;-85
2021/04/03 06:03:37;;;;;;;8.70;2.92;;;5.70;57.40;;;;;;5014216;28;20034;-86
2021/04/03 06:06:02;;;;;;;7.57;3.70;;;5.80;57.40;;;;;;5013992;28;20045;-84
2021/04/03 06:08:30;;;;;;;11.65;3.45;;;5.80;57.40;;;;;;4997062;28;20034;-86
2021/04/03 06:11:21;;;;;;;8.55;3.65;;;5.80;57.70;;;;;;5014406;28;20041;-85
2021/04/03 06:13:55;;;;;;;7.85;3.22;;;5.90;57.60;;;;;;4999917;28;20041;-86
2021/04/03 06:16:29;;;;;;;5.72;3.08;;;5.80;57.50;;;;;;5000201;28;20030;-86
2021/04/03 06:19:18;;;;;;;9.70;3.28;;;5.90;57.60;;;;;;5014638;28;20106;-86
2021/04/03 06:21:53;;;;;;;5.57;3.03;;;5.90;57.60;;;;;;5015031;28;20080;-85
2021/04/03 06:24:31;;;;;;;7.90;2.90;;;5.90;57.50;;;;;;5016511;28;20121;-85
2021/04/03 06:27:01;;;;;;;6.97;2.90;;;6.00;57.60;;;;;;5016478;28;20038;-85
2021/04/03 06:29:32;;;;;;;4.80;2.75;;;6.10;57.60;;;;;;4998143;28;20042;-86
2021/04/03 06:31:59;;;;;;;6.15;2.88;;;6.20;57.60;;;;;;4997157;28;20025;-86
2021/04/03 06:34:33;;;;;;;8.13;3.20;;;6.30;57.50;;;;;;5013278;28;20027;-86
2021/04/03 06:37:00;;;;;;;7.93;2.97;;;6.40;58.20;;;;;;4996306;28;20111;-86
2021/04/03 06:39:27;;;;;;;4.05;2.83;;;6.50;57.50;;;;;;5026967;28;20030;-85
2021/04/03 06:41:53;;;;;;;5.80;3.05;;;6.70;57.30;;;;;;5011152;28;20563;-86
2021/04/03 06:44:20;;;;;;;4.80;2.85;;;6.80;57.20;;;;;;5023271;28;20030;-86
2021/04/03 06:46:47;;;;;;;7.20;2.80;;;7.00;57.20;;;;;;5016682;28;20023;-87
2021/04/03 06:49:13;;;;;;;5.32;3.03;;;7.20;56.80;;;;;;5012249;28;20034;-86
2021/04/03 06:51:40;;;;;;;4.75;3.08;;;7.50;56.80;;;;;;5017952;28;20030;-85
2021/04/03 06:54:07;;;;;;;7.22;2.72;;;7.60;56.70;;;;;;5023694;28;20023;-85
2021/04/03 06:56:34;;;;;;;7.13;2.80;;;7.70;56.50;;;;;;4998963;28;20010;-84
2021/04/03 06:59:13;;;;;;;5.10;2.15;;;7.80;56.60;;;;;;5015477;28;20023;-85
2021/04/03 07:01:52;;;;;;;4.57;2.35;;;7.80;56.50;;;;;;5004105;28;20029;-85
2021/04/03 07:04:47;;;;;;;3.67;2.40;;;7.80;56.40;;;;;;4983075;28;20027;-85
2021/04/03 07:07:13;;;;;;;3.50;2.47;;;7.80;56.20;;;;;;4988920;28;20053;-85
2021/04/03 07:09:41;;;;;;;3.45;2.38;;;7.80;56.20;;;;;;5014606;28;20027;-86
2021/04/03 07:12:08;;;;;;;3.25;2.10;;;7.80;56.30;;;;;;5014696;28;20037;-85
2021/04/03 07:14:35;;;;;;;4.95;2.55;;;7.90;56.30;;;;;;5013556;28;20085;-85
2021/04/03 07:17:02;;;;;;;3.83;2.53;;;8.10;56.10;;;;;;5000060;28;20167;-83
2021/04/03 07:19:28;;;;;;;4.22;2.40;;;8.20;56.20;;;;;;5016670;28;20376;-85
2021/04/03 07:21:54;;;;;;;3.97;2.25;;;8.40;56.20;;;;;;5000663;28;20034;-85
2021/04/03 07:24:20;;;;;;;8.30;2.70;;;8.60;55.90;;;;;;5010922;28;20058;-86
2021/04/03 07:26:50;;;;;;;6.50;2.42;;;8.80;55.50;;;;;;5005328;28;20030;-86
2021/04/03 07:29:40;;;;;;;6.90;2.60;;;9.10;55.30;;;;;;5000726;28;20041;-86
2021/04/03 07:32:07;;;;;;;2.97;2.10;;;9.30;55.10;;;;;;5000985;28;20096;-86
2021/04/03 07:34:40;;;;;;;3.55;2.03;;;9.40;54.80;;;;;;5015241;28;20049;-86
2021/04/03 07:37:08;;;;;;;4.28;2.30;;;9.50;54.40;;;;;;5001274;28;20061;-86
2021/04/03 07:39:37;;;;;;;5.80;2.55;;;9.70;54.60;;;;;;5016258;28;20022;-86
2021/04/03 07:42:04;;;;;;;4.75;2.60;;;9.90;54.40;;;;;;5001310;28;20034;-86
2021/04/03 07:44:37;;;;;;;7.18;2.35;;;10.20;54.50;;;;;;4983121;28;20041;-85
2021/04/03 07:47:20;;;;;;;14.73;6.90;;;10.50;54.30;;;;;;5016868;28;20053;-84
2021/04/03 07:49:47;;;;;;;5.50;2.10;;;10.80;54.00;;;;;;5002675;28;20116;-84
2021/04/03 07:52:13;;;;;;;3.97;2.42;;;10.80;53.70;;;;;;4997851;28;20497;-83
2021/04/03 07:54:40;;;;;;;6.43;2.30;;;11.10;53.30;;;;;;5015846;28;20026;-84
2021/04/03 07:57:09;;;;;;;6.68;2.17;;;11.10;53.10;;;;;;5000772;28;20031;-85
2021/04/03 07:59:47;;;;;;;4.85;2.35;;;11.20;52.80;;;;;;5005419;28;20308;-85
2021/04/03 08:02:21;;;;;;;9.63;2.55;;;11.10;52.50;;;;;;5022820;28;20037;-86
2021/04/03 08:04:47;;;;;;;5.65;1.92;;;11.40;52.30;;;;;;5027077;28;20034;-86
2021/04/03 08:07:15;;;;;;;8.40;2.22;;;11.30;52.10;;;;;;5018921;28;20022;-86
2021/04/03 08:09:40;;;;;;;6.47;2.30;;;11.50;51.50;;;;;;5002275;28;20543;-86
2021/04/03 08:12:07;;;;;;;5.75;2.17;;;11.80;51.20;;;;;;5003459;28;20034;-87
2021/04/03 08:14:35;;;;;;;4.80;2.30;;;12.00;50.80;;;;;;5004474;28;20480;-87
2021/04/03 08:17:01;;;;;;;4.70;2.30;;;12.30;50.40;;;;;;5004186;28;20088;-87
2021/04/03 08:19:30;;;;;;;6.82;2.28;;;12.30;50.40;;;;;;5019091;28;20030;-86
2021/04/03 08:21:56;;;;;;;7.90;3.55;;;12.50;50.00;;;;;;5005199;28;20034;-85
2021/04/03 08:24:26;;;;;;;7.00;3.03;;;12.60;49.80;;;;;;5015463;28;20017;-87
2021/04/03 08:26:52;;;;;;;9.82;2.30;;;12.40;49.90;;;;;;5008628;28;20038;-86
2021/04/03 08:29:31;;;;;;;3.40;2.10;;;12.30;49.50;;;;;;5021276;28;20034;-87
2021/04/03 08:31:59;;;;;;;3.58;2.17;;;12.20;49.30;;;;;;5018865;28;20098;-86
2021/04/03 08:34:25;;;;;;;7.97;3.20;;;11.90;49.80;;;;;;5022961;28;20034;-86
2021/04/03 08:36:52;;;;;;;9.07;1.90;;;11.70;50.20;;;;;;5008483;28;20032;-86
2021/04/03 08:39:20;;;;;;;4.53;2.50;;;11.50;50.20;;;;;;5004523;28;20026;-86
2021/04/03 08:41:48;;;;;;;5.82;2.00;;;11.70;50.10;;;;;;5023561;28;20037;-85
2021/04/03 08:44:23;;;;;;;3.63;2.20;;;11.60;50.30;;;;;;5008246;28;20026;-87
2021/04/03 08:46:51;;;;;;;6.80;2.72;;;11.50;50.60;;;;;;5034343;28;20034;-84
2021/04/03 08:49:22;;;;;;;7.72;2.38;;;11.60;50.00;;;;;;5017980;28;20019;-84
2021/04/03 08:51:48;;;;;;;6.20;2.38;;;11.50;50.10;;;;;;5012867;28;20034;-85
2021/04/03 08:54:14;;;;;;;6.55;2.03;;;11.40;50.10;;;;;;5026232;28;20018;-86
2021/04/03 08:56:39;;;;;;;8.60;2.15;;;11.30;50.20;;;;;;5019394;28;20026;-85
2021/04/03 08:59:14;;;;;;;8.23;2.40;;;11.20;50.10;;;;;;5022683;28;20022;-85
2021/04/03 09:01:49;;;;;;;3.70;1.90;;;11.00;50.00;;;;;;5000782;28;20086;-85
2021/04/03 09:04:15;;;;;;;7.05;2.45;;;10.80;50.20;;;;;;5016379;28;20033;-85
2021/04/03 09:06:51;;;;;;;5.95;2.53;;;10.60;50.20;;;;;;5003520;28;20061;-85
2021/04/03 09:09:22;;;;;;;7.32;2.25;;;10.60;50.50;;;;;;5008044;28;20041;-85
2021/04/03 09:12:05;;;;;;;6.50;2.28;;;12.40;48.20;;;;;;5013782;28;20049;-85
2021/04/03 09:14:35;;;;;;;4.97;2.15;;;12.30;47.20;;;;;;5022243;28;20026;-86
2021/04/03 09:17:04;;;;;;;11.32;2.70;;;12.00;47.60;;;;;;5015855;28;20099;-85
2021/04/03 09:19:29;;;;;;;4.28;2.40;;;12.00;48.20;;;;;;5003518;28;20132;-85
2021/04/03 09:21:57;;;;;;;5.10;2.28;;;12.10;47.80;;;;;;5003792;28;20509;-85
2021/04/03 09:24:31;;;;;;;5.78;2.10;;;13.60;45.90;;;;;;5024995;28;20026;-86
2021/04/03 09:27:09;;;;;;;3.13;1.80;;;15.20;43.20;;;;;;5023235;22;20434;-67
2021/04/03 09:29:35;;;;;;;5.80;2.10;;;16.50;41.00;;;;;;4993081;28;20054;-66
2021/04/03 09:32:08;;;;;;;3.47;2.03;;;17.30;39.90;;;;;;5000608;28;20026;-66
2021/04/03 09:34:34;;;;;;;8.45;2.40;;;16.20;40.60;;;;;;5005516;28;20373;-66
2021/04/03 09:37:15;;;;;;;8.63;2.45;;;15.70;41.90;;;;;;5009121;28;20062;-66
2021/04/03 09:39:49;;;;;;;8.65;2.45;;;15.60;41.80;;;;;;5009168;28;20026;-67
2021/04/03 09:42:17;;;;;;;4.32;2.08;;;14.60;43.40;;;;;;5008950;28;20084;-66
2021/04/03 09:44:44;;;;;;;7.47;2.10;;;15.10;43.30;;;;;;5008574;28;20060;-66
2021/04/03 09:47:09;;;;;;;6.28;2.00;;;15.80;42.60;;;;;;5008856;28;20085;-67
2021/04/03 09:49:35;;;;;;;5.03;2.00;;;15.10;43.20;;;;;;5008958;28;20069;-67
2021/04/03 09:52:02;;;;;;;5.95;1.98;;;14.90;44.30;;;;;;5009072;28;20426;-68
2021/04/03 09:54:28;;;;;;;7.70;2.47;;;14.80;44.20;;;;;;4993335;28;20134;-66
2021/04/03 09:56:54;;;;;;;5.72;1.92;;;15.10;43.70;;;;;;5008914;28;20055;-66
2021/04/03 09:59:20;;;;;;;3.83;1.90;;;15.20;43.30;;;;;;5000600;28;20090;-66
2021/04/03 10:01:46;;;;;;;4.53;1.95;;;15.10;43.70;;;;;;4995269;28;20030;-67
2021/04/03 10:04:12;;;;;;;4.60;1.83;;;14.90;43.60;;;;;;4991904;28;20030;-67
2021/04/03 10:06:38;;;;;;;4.22;1.98;;;14.80;44.20;;;;;;5008503;28;20505;-67
2021/04/03 10:09:05;;;;;;;4.55;2.00;;;14.90;44.40;;;;;;5008243;28;20109;-66
2021/04/03 10:11:30;;;;;;;6.65;3.65;;;14.90;44.70;;;;;;4992102;28;20113;-67
2021/04/03 10:13:56;;;;;;;4.53;2.03;;;14.80;44.70;;;;;;5002257;28;20113;-67
2021/04/03 10:16:22;;;;;;;3.83;2.13;;;14.90;44.10;;;;;;5011583;28;20466;-66
2021/04/03 10:18:47;;;;;;;5.90;1.75;;;14.80;44.20;;;;;;5008781;28;20043;-66
2021/04/03 10:21:14;;;;;;;4.32;1.77;;;14.70;44.10;;;;;;4992074;28;20030;-66
2021/04/03 10:23:40;;;;;;;3.45;1.80;;;14.50;44.10;;;;;;5007875;28;20144;-66
2021/04/03 10:26:05;;;;;;;3.72;2.30;;;14.40;44.30;;;;;;5006556;28;20080;-67
2021/04/03 10:28:31;;;;;;;5.43;1.92;;;14.30;44.10;;;;;;4991235;28;20467;-67
2021/04/03 10:30:57;;;;;;;3.85;2.00;;;14.30;44.50;;;;;;5002073;28;20034;-69
2021/04/03 10:33:22;;;;;;;3.17;1.67;;;14.30;44.60;;;;;;5003702;28;20022;-68
2021/04/03 10:35:48;;;;;;;5.72;2.10;;;14.40;44.70;;;;;;4994962;28;20042;-69
2021/04/03 10:38:14;;;;;;;2.30;1.83;;;14.50;44.50;;;;;;5003074;28;20080;-69
2021/04/03 10:40:39;;;;;;;4.38;1.80;;;14.70;44.10;;;;;;4993781;28;20414;-68
2021/04/03 10:43:05;;;;;;;2.67;1.95;;;15.00;43.80;;;;;;4991646;28;20030;-68
2021/04/03 10:45:31;;;;;;;3.40;1.92;;;15.00;43.40;;;;;;4990343;28;20033;-67
2021/04/03 10:47:57;;;;;;;5.53;1.70;;;15.10;43.30;;;;;;4990612;28;20038;-68
2021/04/03 10:50:22;;;;;;;3.67;1.92;;;15.00;43.00;;;;;;5006750;28;20038;-68
2021/04/03 10:52:51;;;;;;;2.95;1.98;;;14.70;42.90;;;;;;5010365;28;20045;-69
2021/04/03 10:55:17;;;;;;;4.68;2.20;;;14.40;43.50;;;;;;4990229;28;20022;-69
2021/04/03 10:57:43;;;;;;;14.93;8.38;;;14.20;43.30;;;;;;5006603;28;20114;-68
2021/04/03 11:00:09;;;;;;;5.25;2.50;;;14.20;43.20;;;;;;4998880;28;20101;-67
2021/04/03 11:02:35;;;;;;;2.67;1.92;;;14.00;43.40;;;;;;4990162;28;20106;-68
2021/04/03 11:05:02;;;;;;;4.88;2.35;;;13.90;44.00;;;;;;4990211;28;20465;-68
2021/04/03 11:07:27;;;;;;;4.45;2.38;;;13.80;44.00;;;;;;4989323;28;20041;-67
2021/04/03 11:09:53;;;;;;;6.32;2.38;;;13.60;44.00;;;;;;4998430;28;20095;-69
2021/04/03 11:12:19;;;;;;;4.82;2.00;;;13.60;44.20;;;;;;4993280;28;20029;-69
2021/04/03 11:14:45;;;;;;;5.25;2.15;;;13.80;44.10;;;;;;5015292;28;20386;-68
2021/04/03 11:17:11;;;;;;;4.47;1.70;;;13.90;44.10;;;;;;4989206;28;20022;-68
2021/04/03 11:19:37;;;;;;;4.03;1.63;;;14.00;43.80;;;;;;4989606;28;20499;-68
2021/04/03 11:22:03;;;;;;;2.17;1.73;;;14.10;43.50;;;;;;4990808;28;20494;-68
2021/04/03 11:24:29;;;;;;;4.70;1.60;;;14.30;43.60;;;;;;4990257;28;20030;-68
2021/04/03 11:26:55;;;;;;;4.78;1.63;;;14.60;43.10;;;;;;4992801;28;20396;-65
2021/04/03 11:29:21;;;;;;;3.78;1.80;;;14.80;42.90;;;;;;5000549;28;20045;-69
2021/04/03 11:31:47;;;;;;;9.13;1.92;;;14.70;42.70;;;;;;4989793;28;20034;-69
2021/04/03 11:34:13;;;;;;;3.85;1.90;;;14.60;42.50;;;;;;4989468;28;20034;-68
2021/04/03 11:36:39;;;;;;;2.83;1.55;;;14.50;42.60;;;;;;4992181;28;20360;-67
2021/04/03 11:39:06;;;;;;;3.58;1.58;;;14.30;42.60;;;;;;4990389;28;20023;-69
2021/04/03 11:41:32;;;;;;;4.25;1.60;;;14.20;42.80;;;;;;4990930;28;20364;-69
2021/04/03 11:43:58;;;;;;;4.72;1.50;;;14.00;42.80;;;;;;4989323;28;20026;-68
2021/04/03 11:46:23;;;;;;;4.45;1.50;;;13.90;42.90;;;;;;4990732;28;20041;-69
2021/04/03 11:48:49;;;;;;;2.80;1.77;;;13.80;42.80;;;;;;4990663;28;20059;-68
2021/04/03 11:51:15;;;;;;;3.08;1.48;;;13.80;42.90;;;;;;4990665;28;20030;-67
2021/04/03 11:53:42;;;;;;;3.15;1.38;;;13.90;42.70;;;;;;4991217;28;20027;-68
2021/04/03 11:56:07;;;;;;;6.43;1.70;;;13.80;42.30;;;;;;4989721;28;20533;-69
2021/04/03 11:58:33;;;;;;;1.48;1.13;;;13.70;42.40;;;;;;4997635;28;20049;-68
2021/04/03 12:00:59;;;;;;;4.13;1.40;;;13.60;42.30;;;;;;5001775;28;20030;-67
2021/04/03 12:03:25;;;;;;;2.50;1.35;;;13.40;42.20;;;;;;4992904;28;20026;-69
2021/04/03 12:05:51;;;;;;;2.95;1.63;;;13.20;42.50;;;;;;4990109;28;20037;-68
2021/04/03 12:08:16;;;;;;;4.40;1.80;;;13.10;42.70;;;;;;4990108;28;20399;-68
2021/04/03 12:10:42;;;;;;;2.78;1.50;;;13.00;42.60;;;;;;4989890;28;20033;-69
2021/04/03 12:13:08;;;;;;;2.92;1.23;;;12.90;42.30;;;;;;4999280;28;20023;-68
2021/04/03 12:15:36;;;;;;;2.30;1.35;;;12.90;42.40;;;;;;4995377;28;20022;-68
2021/04/03 12:18:01;;;;;;;3.30;1.55;;;13.00;42.40;;;;;;4990216;28;20023;-69
2021/04/03 12:20:27;;;;;;;29.33;16.73;;;13.00;42.40;;;;;;4990470;28;20018;-69
2021/04/03 12:22:53;;;;;;;1.45;1.23;;;13.20;42.30;;;;;;4990305;28;20023;-69
2021/04/03 12:25:19;;;;;;;5.22;1.38;;;13.20;41.70;;;;;;4989495;28;20037;-69
2021/04/03 12:27:44;;;;;;;3.55;1.23;;;13.20;41.60;;;;;;4997896;28;20113;-68
2021/04/03 12:30:11;;;;;;;4.05;1.38;;;13.20;42.00;;;;;;5002375;28;20034;-67
2021/04/03 12:32:36;;;;;;;3.05;1.60;;;13.10;41.90;;;;;;5002087;28;20022;-70
2021/04/03 12:35:03;;;;;;;2.97;1.10;;;13.00;41.80;;;;;;4989674;28;20054;-68
2021/04/03 12:37:29;;;;;;;2.45;1.35;;;12.90;41.90;;;;;;4990262;28;20419;-69
2021/04/03 12:39:55;;;;;;;2.60;1.25;;;13.00;41.70;;;;;;5006222;28;20041;-68
2021/04/03 12:42:20;;;;;;;6.22;1.73;;;13.20;41.70;;;;;;4989989;28;20029;-68
2021/04/03 12:44:46;;;;;;;2.08;1.20;;;13.40;41.70;;;;;;4989979;28;20037;-68
2021/04/03 12:47:12;;;;;;;3.83;1.35;;;13.80;41.40;;;;;;5006415;28;20149;-69
2021/04/03 12:49:37;;;;;;;3.92;1.27;;;14.10;41.00;;;;;;5006541;28;20100;-69
2021/04/03 12:52:04;;;;;;;4.22;1.17;;;14.10;40.30;;;;;;5009857;28;20026;-68
2021/04/03 12:54:29;;;;;;;2.17;0.90;;;14.00;40.20;;;;;;5009452;28;20018;-68
2021/04/03 12:56:55;;;;;;;1.70;1.10;;;13.80;39.70;;;;;;5011240;28;20053;-68